sensor_id;sensor_type;location;lat;lon;timestamp;pressure;altitude;pressure_sealevel;temperature;humidity
36664;BME280;53333;51.976;20.144;2023-03-22T00:00:44;100153.81;;;4.95;71.81
36664;BME280;53333;51.976;20.144;2023-03-22T00:03:17;100151.16;;;4.95;71.64
36664;BME280;53333;51.976;20.144;2023-03-22T00:05:56;100153.81;;;4.95;71.81
36664;BME280;53333;51.976;20.144;2023-03-22T00:08:29;100151.28;;;4.90;71.79
36664;BME280;53333;51.976;20.144;2023-03-22T00:11:02;100139.84;;;4.88;71.73
36664;BME280;53333;51.976;20.144;2023-03-22T00:13:37;100136.38;;;4.86;71.71
36664;BME280;53333;51.976;20.144;2023-03-22T00:16:10;100133.81;;;4.83;71.70
36664;BME280;53333;51.976;20.144;2023-03-22T00:18:43;100133.00;;;4.79;71.64
36664;BME280;53333;51.976;20.144;2023-03-22T00:21:17;100134.00;;;4.75;71.66
36664;BME280;53333;51.976;20.144;2023-03-22T00:23:50;100136.72;;;4.72;71.62
36664;BME280;53333;51.976;20.144;2023-03-22T00:26:23;100133.25;;;4.70;71.75
36664;BME280;53333;51.976;20.144;2023-03-22T00:28:57;100137.75;;;4.66;71.74
36664;BME280;53333;51.976;20.144;2023-03-22T00:31:31;100121.94;;;4.63;71.85
36664;BME280;53333;51.976;20.144;2023-03-22T00:34:04;100129.97;;;4.60;71.82
36664;BME280;53333;51.976;20.144;2023-03-22T00:36:38;100136.19;;;4.58;71.95
36664;BME280;53333;51.976;20.144;2023-03-22T00:39:11;100128.28;;;4.56;71.83
36664;BME280;53333;51.976;20.144;2023-03-22T00:41:44;100123.06;;;4.53;71.78
36664;BME280;53333;51.976;20.144;2023-03-22T00:44:19;100117.00;;;4.49;71.84
36664;BME280;53333;51.976;20.144;2023-03-22T00:46:52;100117.91;;;4.48;72.25
36664;BME280;53333;51.976;20.144;2023-03-22T00:49:26;100115.31;;;4.47;72.21
36664;BME280;53333;51.976;20.144;2023-03-22T00:51:59;100117.94;;;4.47;72.35
36664;BME280;53333;51.976;20.144;2023-03-22T00:54:32;100115.34;;;4.45;72.53
36664;BME280;53333;51.976;20.144;2023-03-22T00:57:05;100118.84;;;4.46;72.45
36664;BME280;53333;51.976;20.144;2023-03-22T00:59:40;100122.38;;;4.45;72.62
36664;BME280;53333;51.976;20.144;2023-03-22T01:02:14;100118.84;;;4.46;72.56
36664;BME280;53333;51.976;20.144;2023-03-22T01:04:48;100116.16;;;4.47;72.73
36664;BME280;53333;51.976;20.144;2023-03-22T01:07:21;100121.47;;;4.47;72.61
36664;BME280;53333;51.976;20.144;2023-03-22T01:09:54;100121.38;;;4.50;72.79
36664;BME280;53333;51.976;20.144;2023-03-22T01:12:28;100119.56;;;4.52;72.75
36664;BME280;53333;51.976;20.144;2023-03-22T01:15:03;100119.50;;;4.55;72.98
36664;BME280;53333;51.976;20.144;2023-03-22T01:17:36;100112.41;;;4.56;72.72
36664;BME280;53333;51.976;20.144;2023-03-22T01:20:10;100110.63;;;4.58;72.73
36664;BME280;53333;51.976;20.144;2023-03-22T01:22:44;100114.09;;;4.60;73.01
36664;BME280;53333;51.976;20.144;2023-03-22T01:25:17;100099.06;;;4.61;72.87
36664;BME280;53333;51.976;20.144;2023-03-22T01:27:50;100113.16;;;4.63;73.16
36664;BME280;53333;51.976;20.144;2023-03-22T01:30:25;100109.56;;;4.64;73.17
36664;BME280;53333;51.976;20.144;2023-03-22T01:32:59;100103.38;;;4.65;73.05
36664;BME280;53333;51.976;20.144;2023-03-22T01:35:32;100095.41;;;4.66;73.09
36664;BME280;53333;51.976;20.144;2023-03-22T01:38:06;100086.50;;;4.69;73.32
36664;BME280;53333;51.976;20.144;2023-03-22T01:40:44;100083.78;;;4.72;73.34
36664;BME280;53333;51.976;20.144;2023-03-22T01:43:17;100079.31;;;4.76;73.25
36664;BME280;53333;51.976;20.144;2023-03-22T01:45:53;100080.16;;;4.76;73.13
36664;BME280;53333;51.976;20.144;2023-03-22T01:48:32;100076.66;;;4.76;73.20
36664;BME280;53333;51.976;20.144;2023-03-22T01:51:09;100072.25;;;4.75;73.31
36664;BME280;53333;51.976;20.144;2023-03-22T01:54:13;100069.63;;;4.75;73.41
36664;BME280;53333;51.976;20.144;2023-03-22T01:56:50;100066.13;;;4.74;73.29
36664;BME280;53333;51.976;20.144;2023-03-22T01:59:33;100064.28;;;4.76;73.33
36664;BME280;53333;51.976;20.144;2023-03-22T02:02:17;100056.34;;;4.76;73.28
36664;BME280;53333;51.976;20.144;2023-03-22T02:04:58;100053.66;;;4.78;73.26
36664;BME280;53333;51.976;20.144;2023-03-22T02:07:35;100056.31;;;4.78;73.55
36664;BME280;53333;51.976;20.144;2023-03-22T02:10:10;100046.56;;;4.78;73.59
36664;BME280;53333;51.976;20.144;2023-03-22T02:13:07;100048.28;;;4.81;73.42
36664;BME280;53333;51.976;20.144;2023-03-22T02:15:58;100046.53;;;4.80;73.44
36664;BME280;53333;51.976;20.144;2023-03-22T02:19:10;100047.34;;;4.82;73.42
36664;BME280;53333;51.976;20.144;2023-03-22T02:22:10;100048.25;;;4.82;73.39
36664;BME280;53333;51.976;20.144;2023-03-22T02:28:07;100048.31;;;4.79;73.19
36664;BME280;53333;51.976;20.144;2023-03-22T02:31:16;100046.63;;;4.77;73.28
36664;BME280;53333;51.976;20.144;2023-03-22T02:37:39;100039.59;;;4.76;73.39
36664;BME280;53333;51.976;20.144;2023-03-22T02:40:16;100041.47;;;4.70;73.39
36664;BME280;53333;51.976;20.144;2023-03-22T02:42:57;100026.53;;;4.69;73.40
36664;BME280;53333;51.976;20.144;2023-03-22T02:45:37;100023.03;;;4.67;73.56
36664;BME280;53333;51.976;20.144;2023-03-22T02:48:16;100026.63;;;4.66;73.50
36664;BME280;53333;51.976;20.144;2023-03-22T02:50:56;100027.56;;;4.64;73.33
36664;BME280;53333;51.976;20.144;2023-03-22T02:53:36;100022.31;;;4.62;73.62
36664;BME280;53333;51.976;20.144;2023-03-22T02:56:15;100027.63;;;4.61;73.59
36664;BME280;53333;51.976;20.144;2023-03-22T02:58:52;100018.00;;;4.58;73.39
36664;BME280;53333;51.976;20.144;2023-03-22T03:01:29;100016.28;;;4.57;73.46
36664;BME280;53333;51.976;20.144;2023-03-22T03:04:06;100023.34;;;4.57;73.66
36664;BME280;53333;51.976;20.144;2023-03-22T03:06:42;100018.97;;;4.55;73.60
36664;BME280;53333;51.976;20.144;2023-03-22T03:09:18;100018.97;;;4.55;73.60
36664;BME280;53333;51.976;20.144;2023-03-22T03:11:54;100017.22;;;4.54;73.71
36664;BME280;53333;51.976;20.144;2023-03-22T03:14:29;100019.88;;;4.53;73.69
36664;BME280;53333;51.976;20.144;2023-03-22T03:17:11;100018.97;;;4.55;73.82
36664;BME280;53333;51.976;20.144;2023-03-22T03:19:56;100026.03;;;4.55;73.64
36664;BME280;53333;51.976;20.144;2023-03-22T03:22:40;100023.47;;;4.52;73.51
36664;BME280;53333;51.976;20.144;2023-03-22T03:25:21;100021.72;;;4.51;73.58
36664;BME280;53333;51.976;20.144;2023-03-22T03:28:03;100026.19;;;4.49;73.72
36664;BME280;53333;51.976;20.144;2023-03-22T03:30:46;100021.84;;;4.46;73.62
36664;BME280;53333;51.976;20.144;2023-03-22T03:33:24;100021.91;;;4.43;73.48
36664;BME280;53333;51.976;20.144;2023-03-22T03:36:01;100023.72;;;4.41;73.56
36664;BME280;53333;51.976;20.144;2023-03-22T03:38:39;100019.31;;;4.42;73.69
36664;BME280;53333;51.976;20.144;2023-03-22T03:41:16;100028.16;;;4.41;73.75
36664;BME280;53333;51.976;20.144;2023-03-22T03:43:52;100029.91;;;4.40;73.45
36664;BME280;53333;51.976;20.144;2023-03-22T03:46:26;100018.47;;;4.40;73.70
36664;BME280;53333;51.976;20.144;2023-03-22T03:49:01;100020.28;;;4.39;73.69
36664;BME280;53333;51.976;20.144;2023-03-22T03:51:45;100024.66;;;4.39;73.54
36664;BME280;53333;51.976;20.144;2023-03-22T03:54:19;100015.91;;;4.36;73.75
36664;BME280;53333;51.976;20.144;2023-03-22T03:56:52;100018.53;;;4.38;73.65
36664;BME280;53333;51.976;20.144;2023-03-22T03:59:27;100015.00;;;4.38;73.69
36664;BME280;53333;51.976;20.144;2023-03-22T04:02:02;100007.94;;;4.38;73.58
36664;BME280;53333;51.976;20.144;2023-03-22T04:04:37;100001.72;;;4.41;73.53
36664;BME280;53333;51.976;20.144;2023-03-22T04:07:10;99999.84;;;4.44;73.45
36664;BME280;53333;51.976;20.144;2023-03-22T04:09:43;99998.91;;;4.47;73.65
36664;BME280;53333;51.976;20.144;2023-03-22T04:12:24;100002.38;;;4.49;73.59
36664;BME280;53333;51.976;20.144;2023-03-22T04:15:17;99997.91;;;4.51;73.42
36664;BME280;53333;51.976;20.144;2023-03-22T04:17:56;99997.00;;;4.52;73.44
36664;BME280;53333;51.976;20.144;2023-03-22T04:20:32;100002.22;;;4.55;73.34
36664;BME280;53333;51.976;20.144;2023-03-22T04:23:05;99988.06;;;4.56;73.23
36664;BME280;53333;51.976;20.144;2023-03-22T04:25:38;99987.16;;;4.57;73.27
36664;BME280;53333;51.976;20.144;2023-03-22T04:28:16;99992.47;;;4.57;73.36
36664;BME280;53333;51.976;20.144;2023-03-22T04:30:53;99988.88;;;4.60;73.24
36664;BME280;53333;51.976;20.144;2023-03-22T04:33:51;99986.16;;;4.63;73.17
36664;BME280;53333;51.976;20.144;2023-03-22T04:36:35;99977.97;;;4.70;73.23
36664;BME280;53333;51.976;20.144;2023-03-22T04:39:28;99983.88;;;4.80;72.98
36664;BME280;53333;51.976;20.144;2023-03-22T04:42:29;99980.97;;;4.89;72.93
36664;BME280;53333;51.976;20.144;2023-03-22T04:45:10;99984.31;;;4.96;72.78
36664;BME280;53333;51.976;20.144;2023-03-22T04:47:48;99969.97;;;5.05;72.75
36664;BME280;53333;51.976;20.144;2023-03-22T04:50:21;99980.28;;;5.14;72.70
36664;BME280;53333;51.976;20.144;2023-03-22T04:53:00;99984.44;;;5.23;72.52
36664;BME280;53333;51.976;20.144;2023-03-22T04:55:35;99985.06;;;5.31;72.58
36664;BME280;53333;51.976;20.144;2023-03-22T04:58:08;99983.13;;;5.38;72.43
36664;BME280;53333;51.976;20.144;2023-03-22T05:00:41;99990.81;;;5.45;72.23
36664;BME280;53333;51.976;20.144;2023-03-22T05:03:16;99987.94;;;5.53;72.41
36664;BME280;53333;51.976;20.144;2023-03-22T05:05:51;99989.47;;;5.62;72.28
36664;BME280;53333;51.976;20.144;2023-03-22T05:08:27;99993.53;;;5.72;72.07
36664;BME280;53333;51.976;20.144;2023-03-22T05:11:05;99987.94;;;5.81;71.96
36664;BME280;53333;51.976;20.144;2023-03-22T05:13:39;99988.53;;;5.91;71.71
36664;BME280;53333;51.976;20.144;2023-03-22T05:16:12;99995.88;;;6.11;71.43
36664;BME280;53333;51.976;20.144;2023-03-22T05:18:54;99992.38;;;6.09;71.08
36664;BME280;53333;51.976;20.144;2023-03-22T05:21:29;100004.63;;;6.13;71.11
36664;BME280;53333;51.976;20.144;2023-03-22T05:24:09;100002.78;;;6.15;71.09
36664;BME280;53333;51.976;20.144;2023-03-22T05:26:44;100001.88;;;6.16;71.28
36664;BME280;53333;51.976;20.144;2023-03-22T05:29:18;100004.50;;;6.18;71.26
36664;BME280;53333;51.976;20.144;2023-03-22T05:32:15;100000.84;;;6.21;70.91
36664;BME280;53333;51.976;20.144;2023-03-22T05:34:52;99996.38;;;6.23;71.00
36664;BME280;53333;51.976;20.144;2023-03-22T05:37:35;99992.69;;;6.27;70.76
36664;BME280;53333;51.976;20.144;2023-03-22T05:40:09;99995.34;;;6.27;70.71
36664;BME280;53333;51.976;20.144;2023-03-22T05:42:46;100000.66;;;6.27;70.76
36664;BME280;53333;51.976;20.144;2023-03-22T05:45:30;100005.03;;;6.28;70.74
36664;BME280;53333;51.976;20.144;2023-03-22T05:48:14;99995.25;;;6.30;70.79
36664;BME280;53333;51.976;20.144;2023-03-22T05:50:49;99995.19;;;6.31;70.78
36664;BME280;53333;51.976;20.144;2023-03-22T05:53:22;99995.03;;;6.36;70.57
36664;BME280;53333;51.976;20.144;2023-03-22T05:56:00;100004.59;;;6.42;70.61
36664;BME280;53333;51.976;20.144;2023-03-22T05:58:36;100005.25;;;6.48;70.45
36664;BME280;53333;51.976;20.144;2023-03-22T06:01:14;100002.38;;;6.54;70.31
36664;BME280;53333;51.976;20.144;2023-03-22T06:03:50;100003.88;;;6.62;70.28
36664;BME280;53333;51.976;20.144;2023-03-22T06:06:49;100000.06;;;6.70;69.95
36664;BME280;53333;51.976;20.144;2023-03-22T06:09:47;100000.59;;;6.80;69.87
36664;BME280;53333;51.976;20.144;2023-03-22T06:12:25;100007.41;;;6.87;69.89
36664;BME280;53333;51.976;20.144;2023-03-22T06:15:08;100006.28;;;6.95;69.89
36664;BME280;53333;51.976;20.144;2023-03-22T06:18:06;100007.78;;;7.02;69.79
36664;BME280;53333;51.976;20.144;2023-03-22T06:20:43;100009.47;;;7.04;69.77
36664;BME280;53333;51.976;20.144;2023-03-22T06:23:24;100008.44;;;7.08;69.63
36664;BME280;53333;51.976;20.144;2023-03-22T06:25:58;100012.75;;;7.11;69.62
36664;BME280;53333;51.976;20.144;2023-03-22T06:28:31;100005.72;;;7.10;69.66
36664;BME280;53333;51.976;20.144;2023-03-22T06:31:06;100014.56;;;7.11;69.57
36664;BME280;53333;51.976;20.144;2023-03-22T06:33:54;100018.13;;;7.09;69.64
36664;BME280;53333;51.976;20.144;2023-03-22T06:36:39;100004.94;;;7.06;69.59
36664;BME280;53333;51.976;20.144;2023-03-22T06:39:22;100013.75;;;7.08;69.59
36664;BME280;53333;51.976;20.144;2023-03-22T06:41:55;100003.13;;;7.08;69.76
36664;BME280;53333;51.976;20.144;2023-03-22T06:44:28;100003.88;;;7.12;69.60
36664;BME280;53333;51.976;20.144;2023-03-22T06:47:37;99997.50;;;7.16;69.81
36664;BME280;53333;51.976;20.144;2023-03-22T06:50:26;100000.09;;;7.18;69.68
36664;BME280;53333;51.976;20.144;2023-03-22T06:53:20;100001.72;;;7.22;69.56
36664;BME280;53333;51.976;20.144;2023-03-22T06:55:57;100006.88;;;7.26;69.79
36664;BME280;53333;51.976;20.144;2023-03-22T06:58:31;100004.06;;;7.31;69.63
36664;BME280;53333;51.976;20.144;2023-03-22T07:01:05;100007.84;;;7.48;69.41
36664;BME280;53333;51.976;20.144;2023-03-22T07:03:39;99995.59;;;7.43;69.52
36664;BME280;53333;51.976;20.144;2023-03-22T07:06:17;99989.31;;;7.46;69.47
36664;BME280;53333;51.976;20.144;2023-03-22T07:08:53;99988.28;;;7.50;69.50
36664;BME280;53333;51.976;20.144;2023-03-22T07:11:33;99993.41;;;7.55;69.70
36664;BME280;53333;51.976;20.144;2023-03-22T07:14:07;99996.75;;;7.60;69.63
36664;BME280;53333;51.976;20.144;2023-03-22T07:16:54;99985.09;;;7.62;69.67
36664;BME280;53333;51.976;20.144;2023-03-22T07:19:27;99990.75;;;7.77;69.21
36664;BME280;53333;51.976;20.144;2023-03-22T07:22:05;99968.84;;;7.70;69.32
36664;BME280;53333;51.976;20.144;2023-03-22T07:24:39;99982.91;;;7.74;69.67
36664;BME280;53333;51.976;20.144;2023-03-22T07:27:28;99975.63;;;7.79;69.52
36664;BME280;53333;51.976;20.144;2023-03-22T07:30:01;99973.56;;;7.86;69.63
36664;BME280;53333;51.976;20.144;2023-03-22T07:32:38;99965.41;;;7.90;69.56
36664;BME280;53333;51.976;20.144;2023-03-22T07:35:15;99980.06;;;8.00;69.54
36664;BME280;53333;51.976;20.144;2023-03-22T07:37:50;99973.56;;;8.08;69.23
36664;BME280;53333;51.976;20.144;2023-03-22T07:40:30;99974.09;;;8.16;69.25
36664;BME280;53333;51.976;20.144;2023-03-22T07:43:05;99970.31;;;8.22;69.13
36664;BME280;53333;51.976;20.144;2023-03-22T07:45:46;99981.66;;;8.27;69.03
36664;BME280;53333;51.976;20.144;2023-03-22T07:48:43;99967.19;;;8.32;69.01
36664;BME280;53333;51.976;20.144;2023-03-22T07:51:35;99962.53;;;8.37;68.94
36664;BME280;53333;51.976;20.144;2023-03-22T07:54:08;99956.16;;;8.42;68.81
36664;BME280;53333;51.976;20.144;2023-03-22T07:56:48;99954.38;;;8.42;68.86
36664;BME280;53333;51.976;20.144;2023-03-22T07:59:23;99949.91;;;8.43;69.00
36664;BME280;53333;51.976;20.144;2023-03-22T08:01:57;99946.34;;;8.44;68.93
36664;BME280;53333;51.976;20.144;2023-03-22T08:04:35;99942.75;;;8.45;68.86
36664;BME280;53333;51.976;20.144;2023-03-22T08:07:28;99947.09;;;8.47;68.71
36664;BME280;53333;51.976;20.144;2023-03-22T08:10:03;99939.06;;;8.49;68.70
36664;BME280;53333;51.976;20.144;2023-03-22T08:12:37;99926.59;;;8.49;68.81
36664;BME280;53333;51.976;20.144;2023-03-22T08:15:24;99925.66;;;8.50;68.73
36664;BME280;53333;51.976;20.144;2023-03-22T08:17:57;99924.72;;;8.51;68.84
36664;BME280;53333;51.976;20.144;2023-03-22T08:20:39;99915.81;;;8.52;68.73
36664;BME280;53333;51.976;20.144;2023-03-22T08:23:18;99914.00;;;8.53;68.88
36664;BME280;53333;51.976;20.144;2023-03-22T08:26:38;99910.41;;;8.54;68.72
36664;BME280;53333;51.976;20.144;2023-03-22T08:29:20;99912.88;;;8.59;68.72
36664;BME280;53333;51.976;20.144;2023-03-22T08:31:55;99917.06;;;8.64;68.65
36664;BME280;53333;51.976;20.144;2023-03-22T08:34:35;99906.00;;;8.73;68.58
36664;BME280;53333;51.976;20.144;2023-03-22T08:37:10;99903.72;;;8.85;68.58
36664;BME280;53333;51.976;20.144;2023-03-22T08:39:45;99930.56;;;8.99;68.16
36664;BME280;53333;51.976;20.144;2023-03-22T08:42:28;99923.03;;;9.09;68.02
36664;BME280;53333;51.976;20.144;2023-03-22T08:45:02;99920.00;;;9.17;67.77
36664;BME280;53333;51.976;20.144;2023-03-22T08:47:38;99916.13;;;9.24;67.76
36664;BME280;53333;51.976;20.144;2023-03-22T08:50:12;99925.47;;;9.33;67.45
36664;BME280;53333;51.976;20.144;2023-03-22T08:53:11;99925.06;;;9.42;67.32
36664;BME280;53333;51.976;20.144;2023-03-22T08:55:50;99916.69;;;9.50;67.16
36664;BME280;53333;51.976;20.144;2023-03-22T08:58:45;99935.69;;;9.61;66.93
36664;BME280;53333;51.976;20.144;2023-03-22T09:01:40;99928.88;;;9.73;66.66
36664;BME280;53333;51.976;20.144;2023-03-22T09:04:18;99909.63;;;9.85;66.22
36664;BME280;53333;51.976;20.144;2023-03-22T09:06:51;99916.88;;;10.00;65.95
36664;BME280;53333;51.976;20.144;2023-03-22T09:09:24;99917.19;;;10.12;65.69
36664;BME280;53333;51.976;20.144;2023-03-22T09:11:58;99922.28;;;10.16;65.47
36664;BME280;53333;51.976;20.144;2023-03-22T09:14:31;99916.63;;;10.23;65.42
36664;BME280;53333;51.976;20.144;2023-03-22T09:17:04;99904.25;;;10.39;65.13
36664;BME280;53333;51.976;20.144;2023-03-22T09:19:39;99918.09;;;10.81;64.52
36664;BME280;53333;51.976;20.144;2023-03-22T09:22:12;99915.41;;;11.14;63.88
36664;BME280;53333;51.976;20.144;2023-03-22T09:24:50;99916.88;;;11.36;63.23
36664;BME280;53333;51.976;20.144;2023-03-22T09:27:23;99915.94;;;11.53;63.00
36664;BME280;53333;51.976;20.144;2023-03-22T09:29:57;99920.25;;;11.71;62.45
36664;BME280;53333;51.976;20.144;2023-03-22T09:32:33;99909.00;;;11.96;62.56
36664;BME280;53333;51.976;20.144;2023-03-22T09:35:09;99911.59;;;11.98;61.82
36664;BME280;53333;51.976;20.144;2023-03-22T09:37:53;99907.72;;;12.04;61.45
36664;BME280;53333;51.976;20.144;2023-03-22T09:40:28;99911.22;;;12.04;61.22
36664;BME280;53333;51.976;20.144;2023-03-22T09:43:07;99906.84;;;12.03;60.97
36664;BME280;53333;51.976;20.144;2023-03-22T09:45:46;99910.66;;;11.99;61.00
36664;BME280;53333;51.976;20.144;2023-03-22T09:48:27;99912.81;;;11.92;61.14
36664;BME280;53333;51.976;20.144;2023-03-22T09:51:05;99914.00;;;11.87;60.91
36664;BME280;53333;51.976;20.144;2023-03-22T09:53:39;99917.72;;;11.84;61.16
36664;BME280;53333;51.976;20.144;2023-03-22T09:56:15;99914.09;;;11.85;61.09
36664;BME280;53333;51.976;20.144;2023-03-22T09:58:52;99914.09;;;11.85;60.95
36664;BME280;53333;51.976;20.144;2023-03-22T10:01:31;99921.25;;;11.85;60.78
36664;BME280;53333;51.976;20.144;2023-03-22T10:04:20;99916.94;;;11.82;60.91
36664;BME280;53333;51.976;20.144;2023-03-22T10:07:04;99911.00;;;11.77;61.02
36664;BME280;53333;51.976;20.144;2023-03-22T10:09:45;99912.13;;;11.73;61.12
36664;BME280;53333;51.976;20.144;2023-03-22T10:12:25;99911.50;;;11.68;61.09
36664;BME280;53333;51.976;20.144;2023-03-22T10:15:03;99914.53;;;11.61;61.30
36664;BME280;53333;51.976;20.144;2023-03-22T10:17:38;99919.22;;;11.58;61.46
36664;BME280;53333;51.976;20.144;2023-03-22T10:20:22;99911.44;;;11.53;61.47
36664;BME280;53333;51.976;20.144;2023-03-22T10:23:03;99903.97;;;11.44;61.44
36664;BME280;53333;51.976;20.144;2023-03-22T10:25:39;99897.06;;;11.40;61.62
36664;BME280;53333;51.976;20.144;2023-03-22T10:28:16;99903.16;;;11.42;61.65
36664;BME280;53333;51.976;20.144;2023-03-22T10:30:53;99900.91;;;11.50;61.59
36664;BME280;53333;51.976;20.144;2023-03-22T10:33:32;99897.38;;;11.66;61.44
36664;BME280;53333;51.976;20.144;2023-03-22T10:36:11;99892.28;;;11.93;60.91
36664;BME280;53333;51.976;20.144;2023-03-22T10:38:48;99893.69;;;12.14;60.80
36664;BME280;53333;51.976;20.144;2023-03-22T10:41:23;99888.47;;;12.27;60.70
36664;BME280;53333;51.976;20.144;2023-03-22T10:43:59;99881.41;;;12.41;60.43
36664;BME280;53333;51.976;20.144;2023-03-22T10:46:37;99880.66;;;12.53;59.97
36664;BME280;53333;51.976;20.144;2023-03-22T10:49:15;99883.81;;;12.60;59.85
36664;BME280;53333;51.976;20.144;2023-03-22T10:51:53;99889.19;;;12.60;59.57
36664;BME280;53333;51.976;20.144;2023-03-22T10:54:29;99884.09;;;12.55;59.48
36664;BME280;53333;51.976;20.144;2023-03-22T10:57:02;99881.59;;;12.52;59.44
36664;BME280;53333;51.976;20.144;2023-03-22T10:59:46;99874.53;;;12.51;59.48
36664;BME280;53333;51.976;20.144;2023-03-22T11:02:22;99878.84;;;12.53;59.71
36664;BME280;53333;51.976;20.144;2023-03-22T11:04:57;99871.47;;;12.57;59.55
36664;BME280;53333;51.976;20.144;2023-03-22T11:07:33;99867.66;;;12.61;59.35
36664;BME280;53333;51.976;20.144;2023-03-22T11:10:21;99869.09;;;12.67;59.31
36664;BME280;53333;51.976;20.144;2023-03-22T11:13:09;99875.31;;;12.67;59.07
36664;BME280;53333;51.976;20.144;2023-03-22T11:15:51;99855.47;;;12.70;59.11
36664;BME280;53333;51.976;20.144;2023-03-22T11:18:29;99851.66;;;12.74;59.09
36664;BME280;53333;51.976;20.144;2023-03-22T11:21:05;99850.34;;;12.81;58.99
36664;BME280;53333;51.976;20.144;2023-03-22T11:23:41;99841.78;;;12.89;58.79
36664;BME280;53333;51.976;20.144;2023-03-22T11:26:25;99836.63;;;13.00;58.77
36664;BME280;53333;51.976;20.144;2023-03-22T11:29:04;99855.16;;;13.18;58.13
36664;BME280;53333;51.976;20.144;2023-03-22T11:31:50;99823.28;;;13.55;57.68
36664;BME280;53333;51.976;20.144;2023-03-22T11:34:28;99822.88;;;14.01;56.96
36664;BME280;53333;51.976;20.144;2023-03-22T11:37:06;99820.31;;;14.51;55.94
36664;BME280;53333;51.976;20.144;2023-03-22T11:39:45;99822.00;;;15.03;54.83
36664;BME280;53333;51.976;20.144;2023-03-22T11:42:20;99809.91;;;15.94;53.30
36664;BME280;53333;51.976;20.144;2023-03-22T11:44:54;99803.75;;;16.96;51.04
36664;BME280;53333;51.976;20.144;2023-03-22T11:47:31;99807.91;;;17.55;49.82
36664;BME280;53333;51.976;20.144;2023-03-22T11:50:10;99796.63;;;17.82;49.29
36664;BME280;53333;51.976;20.144;2023-03-22T11:52:52;99794.81;;;18.46;47.54
36664;BME280;53333;51.976;20.144;2023-03-22T11:55:28;99784.91;;;19.57;45.51
36664;BME280;53333;51.976;20.144;2023-03-22T11:58:05;99777.53;;;21.20;42.58
36664;BME280;53333;51.976;20.144;2023-03-22T12:00:39;99780.06;;;22.99;39.22
36664;BME280;53333;51.976;20.144;2023-03-22T12:03:15;99770.03;;;24.57;36.53
36664;BME280;53333;51.976;20.144;2023-03-22T12:05:50;99766.06;;;26.17;33.90
36664;BME280;53333;51.976;20.144;2023-03-22T12:08:27;99775.31;;;27.35;31.84
36664;BME280;53333;51.976;20.144;2023-03-22T12:11:05;99763.19;;;27.87;30.51
36664;BME280;53333;51.976;20.144;2023-03-22T12:13:45;99772.13;;;28.53;29.49
36664;BME280;53333;51.976;20.144;2023-03-22T12:16:23;99771.03;;;29.17;28.34
36664;BME280;53333;51.976;20.144;2023-03-22T12:19:05;99763.59;;;29.73;27.40
36664;BME280;53333;51.976;20.144;2023-03-22T12:21:48;99762.59;;;30.27;26.38
36664;BME280;53333;51.976;20.144;2023-03-22T12:24:25;99761.50;;;30.28;26.29
36664;BME280;53333;51.976;20.144;2023-03-22T12:27:00;99765.00;;;28.93;27.28
36664;BME280;53333;51.976;20.144;2023-03-22T12:29:39;99765.31;;;27.49;28.81
36664;BME280;53333;51.976;20.144;2023-03-22T12:32:18;99758.03;;;26.30;30.22
36664;BME280;53333;51.976;20.144;2023-03-22T12:34:54;99763.63;;;25.21;31.26
36664;BME280;53333;51.976;20.144;2023-03-22T12:37:47;99755.94;;;24.21;33.05
36664;BME280;53333;51.976;20.144;2023-03-22T12:40:25;99758.78;;;23.45;34.46
36664;BME280;53333;51.976;20.144;2023-03-22T12:43:03;99763.78;;;23.07;34.57
36664;BME280;53333;51.976;20.144;2023-03-22T12:45:43;99757.72;;;22.44;35.55
36664;BME280;53333;51.976;20.144;2023-03-22T12:48:25;99741.06;;;21.77;36.74
36664;BME280;53333;51.976;20.144;2023-03-22T12:51:06;99745.25;;;21.17;38.09
36664;BME280;53333;51.976;20.144;2023-03-22T12:53:42;99755.94;;;20.63;38.77
36664;BME280;53333;51.976;20.144;2023-03-22T12:56:19;99746.41;;;20.12;39.68
36664;BME280;53333;51.976;20.144;2023-03-22T12:58:55;99760.69;;;19.55;40.72
36664;BME280;53333;51.976;20.144;2023-03-22T13:01:35;99753.38;;;19.17;41.82
36664;BME280;53333;51.976;20.144;2023-03-22T13:04:46;99751.78;;;19.04;42.29
36664;BME280;53333;51.976;20.144;2023-03-22T13:07:40;99736.44;;;19.15;42.85
36664;BME280;53333;51.976;20.144;2023-03-22T13:10:59;99733.00;;;19.13;43.13
36664;BME280;53333;51.976;20.144;2023-03-22T13:13:53;99739.50;;;18.91;43.56
36664;BME280;53333;51.976;20.144;2023-03-22T13:16:47;99733.47;;;18.77;43.50
36664;BME280;53333;51.976;20.144;2023-03-22T13:19:27;99735.09;;;18.59;43.58
36664;BME280;53333;51.976;20.144;2023-03-22T13:22:19;99740.97;;;18.33;44.47
36664;BME280;53333;51.976;20.144;2023-03-22T13:25:12;99727.88;;;18.07;45.07
36664;BME280;53333;51.976;20.144;2023-03-22T13:27:59;99717.25;;;17.73;46.05
36664;BME280;53333;51.976;20.144;2023-03-22T13:30:46;99720.47;;;17.46;46.53
36664;BME280;53333;51.976;20.144;2023-03-22T13:33:24;99723.28;;;17.23;47.51
36664;BME280;53333;51.976;20.144;2023-03-22T13:36:00;99727.59;;;17.03;47.82
36664;BME280;53333;51.976;20.144;2023-03-22T13:38:39;99715.63;;;16.85;48.40
36664;BME280;53333;51.976;20.144;2023-03-22T13:41:20;99708.78;;;16.69;48.72
36664;BME280;53333;51.976;20.144;2023-03-22T13:43:56;99704.84;;;16.62;49.15
36664;BME280;53333;51.976;20.144;2023-03-22T13:46:48;99707.06;;;16.68;49.04
36664;BME280;53333;51.976;20.144;2023-03-22T13:49:45;99693.16;;;16.84;49.03
36664;BME280;53333;51.976;20.144;2023-03-22T13:52:31;99697.59;;;16.97;48.54
36664;BME280;53333;51.976;20.144;2023-03-22T13:55:15;99696.19;;;17.14;48.44
36664;BME280;53333;51.976;20.144;2023-03-22T13:58:12;99695.97;;;17.38;48.29
36664;BME280;53333;51.976;20.144;2023-03-22T14:01:12;99700.06;;;17.53;48.02
36664;BME280;53333;51.976;20.144;2023-03-22T14:03:48;99690.38;;;17.51;48.31